sensor_id;sensor_type;location;lat;lon;timestamp;pressure;altitude;pressure_sealevel;temperature;humidity
56176;BME280;63065;51.082;17.016;2023-03-20T00:01:55;100290.58;;;13.97;37.63
56176;BME280;63065;51.082;17.016;2023-03-20T00:04:21;100288.41;;;13.70;37.42
56176;BME280;63065;51.082;17.016;2023-03-20T00:06:46;100288.73;;;13.96;37.44
56176;BME280;63065;51.082;17.016;2023-03-20T00:09:12;100285.52;;;13.90;37.39
56176;BME280;63065;51.082;17.016;2023-03-20T00:11:42;100286.37;;;13.89;37.26
56176;BME280;63065;51.082;17.016;2023-03-20T00:14:04;100287.28;;;13.85;37.58
56176;BME280;63065;51.082;17.016;2023-03-20T00:16:31;100286.37;;;13.84;37.58
56176;BME280;63065;51.082;17.016;2023-03-20T00:18:53;100286.62;;;13.59;37.78
56176;BME280;63065;51.082;17.016;2023-03-20T00:21:19;100287.46;;;13.89;37.76
56176;BME280;63065;51.082;17.016;2023-03-20T00:23:44;100286.03;;;14.13;37.41
56176;BME280;63065;51.082;17.016;2023-03-20T00:26:12;100285.81;;;13.92;37.66
56176;BME280;63065;51.082;17.016;2023-03-20T00:28:38;100284.03;;;13.88;37.85
56176;BME280;63065;51.082;17.016;2023-03-20T00:31:01;100280.93;;;13.80;37.91
56176;BME280;63065;51.082;17.016;2023-03-20T00:33:27;100280.61;;;13.81;37.21
56176;BME280;63065;51.082;17.016;2023-03-20T00:35:51;100280.97;;;14.05;37.16
56176;BME280;63065;51.082;17.016;2023-03-20T00:38:16;100280.69;;;13.84;37.47
56176;BME280;63065;51.082;17.016;2023-03-20T00:40:42;100279.06;;;13.88;37.08
56176;BME280;63065;51.082;17.016;2023-03-20T00:43:09;100281.30;;;13.87;37.13
56176;BME280;63065;51.082;17.016;2023-03-20T00:45:34;100278.95;;;13.95;37.21
56176;BME280;63065;51.082;17.016;2023-03-20T00:47:58;100277.26;;;14.10;37.01
56176;BME280;63065;51.082;17.016;2023-03-20T00:50:26;100275.38;;;14.11;37.30
56176;BME280;63065;51.082;17.016;2023-03-20T00:52:50;100277.28;;;13.87;36.93
56176;BME280;63065;51.082;17.016;2023-03-20T00:55:16;100277.03;;;14.18;36.76
56176;BME280;63065;51.082;17.016;2023-03-20T00:57:44;100279.16;;;13.90;36.96
56176;BME280;63065;51.082;17.016;2023-03-20T01:00:12;100276.28;;;14.00;37.03
56176;BME280;63065;51.082;17.016;2023-03-20T01:02:32;100276.34;;;14.05;37.44
56176;BME280;63065;51.082;17.016;2023-03-20T01:04:57;100273.50;;;14.40;37.14
56176;BME280;63065;51.082;17.016;2023-03-20T01:07:21;100270.30;;;14.38;37.30
56176;BME280;63065;51.082;17.016;2023-03-20T01:09:47;100270.18;;;14.43;37.47
56176;BME280;63065;51.082;17.016;2023-03-20T01:12:13;100271.38;;;14.26;37.41
56176;BME280;63065;51.082;17.016;2023-03-20T01:14:38;100270.20;;;14.25;37.51
56176;BME280;63065;51.082;17.016;2023-03-20T01:17:03;100269.95;;;14.42;37.77
56176;BME280;63065;51.082;17.016;2023-03-20T01:19:29;100271.12;;;14.08;37.89
56176;BME280;63065;51.082;17.016;2023-03-20T01:21:54;100271.81;;;14.16;38.02
56176;BME280;63065;51.082;17.016;2023-03-20T01:24:20;100275.83;;;14.30;38.06
56176;BME280;63065;51.082;17.016;2023-03-20T01:26:45;100273.74;;;14.11;38.16
56176;BME280;63065;51.082;17.016;2023-03-20T01:29:17;100275.25;;;14.46;38.25
56176;BME280;63065;51.082;17.016;2023-03-20T01:31:36;100279.76;;;14.51;38.54
56176;BME280;63065;51.082;17.016;2023-03-20T01:34:02;100278.91;;;14.46;38.75
56176;BME280;63065;51.082;17.016;2023-03-20T01:36:28;100279.99;;;14.16;39.32
56176;BME280;63065;51.082;17.016;2023-03-20T01:38:54;100283.30;;;14.24;39.33
56176;BME280;63065;51.082;17.016;2023-03-20T01:41:19;100282.86;;;14.53;39.35
56176;BME280;63065;51.082;17.016;2023-03-20T01:43:45;100282.78;;;14.39;39.71
56176;BME280;63065;51.082;17.016;2023-03-20T01:51:02;100286.24;;;14.14;39.58
56176;BME280;63065;51.082;17.016;2023-03-20T01:53:28;100288.71;;;14.51;39.39
56176;BME280;63065;51.082;17.016;2023-03-20T01:55:56;100289.68;;;14.77;39.18
56176;BME280;63065;51.082;17.016;2023-03-20T01:58:21;100288.46;;;14.43;39.33
56176;BME280;63065;51.082;17.016;2023-03-20T02:00:49;100289.80;;;14.59;40.07
56176;BME280;63065;51.082;17.016;2023-03-20T02:03:11;100290.45;;;14.47;39.72
56176;BME280;63065;51.082;17.016;2023-03-20T02:05:37;100291.13;;;14.75;39.95
56176;BME280;63065;51.082;17.016;2023-03-20T02:08:10;100290.57;;;14.31;40.25
56176;BME280;63065;51.082;17.016;2023-03-20T02:10:32;100291.32;;;14.53;40.24
56176;BME280;63065;51.082;17.016;2023-03-20T02:12:53;100287.50;;;14.68;40.25
56176;BME280;63065;51.082;17.016;2023-03-20T02:15:18;100286.47;;;14.70;40.37
56176;BME280;63065;51.082;17.016;2023-03-20T02:17:44;100288.04;;;14.77;40.31
56176;BME280;63065;51.082;17.016;2023-03-20T02:20:16;100287.64;;;14.69;40.94
56176;BME280;63065;51.082;17.016;2023-03-20T02:25:12;100284.31;;;14.65;41.25
56176;BME280;63065;51.082;17.016;2023-03-20T02:27:32;100286.51;;;14.60;41.61
56176;BME280;63065;51.082;17.016;2023-03-20T02:32:29;100290.35;;;14.78;41.91
56176;BME280;63065;51.082;17.016;2023-03-20T02:39:44;100284.17;;;14.66;42.22
56176;BME280;63065;51.082;17.016;2023-03-20T02:42:07;100286.99;;;14.32;42.16
56176;BME280;63065;51.082;17.016;2023-03-20T02:44:32;100281.79;;;14.69;42.00
56176;BME280;63065;51.082;17.016;2023-03-20T02:46:56;100280.70;;;14.95;42.25
56176;BME280;63065;51.082;17.016;2023-03-20T02:49:26;100279.26;;;14.54;41.99
56176;BME280;63065;51.082;17.016;2023-03-20T02:51:48;100280.33;;;14.86;41.93
56176;BME280;63065;51.082;17.016;2023-03-20T02:54:10;100280.76;;;14.71;42.01
56176;BME280;63065;51.082;17.016;2023-03-20T02:56:38;100280.96;;;15.09;41.35
56176;BME280;63065;51.082;17.016;2023-03-20T02:59:09;100279.85;;;14.94;41.27
56176;BME280;63065;51.082;17.016;2023-03-20T03:01:27;100280.04;;;15.04;41.35
56176;BME280;63065;51.082;17.016;2023-03-20T03:03:53;100281.46;;;15.08;40.97
56176;BME280;63065;51.082;17.016;2023-03-20T03:06:19;100279.33;;;15.08;40.91
56176;BME280;63065;51.082;17.016;2023-03-20T03:08:46;100280.82;;;14.96;41.23
56176;BME280;63065;51.082;17.016;2023-03-20T03:11:08;100278.17;;;14.97;41.35
56176;BME280;63065;51.082;17.016;2023-03-20T03:13:35;100277.66;;;15.07;41.31
56176;BME280;63065;51.082;17.016;2023-03-20T03:16:00;100276.46;;;15.03;41.32
56176;BME280;63065;51.082;17.016;2023-03-20T03:18:24;100274.95;;;14.92;41.42
56176;BME280;63065;51.082;17.016;2023-03-20T03:20:53;100273.03;;;14.89;41.31
56176;BME280;63065;51.082;17.016;2023-03-20T03:23:24;100271.31;;;14.92;41.32
56176;BME280;63065;51.082;17.016;2023-03-20T03:25:39;100273.42;;;14.97;41.42
56176;BME280;63065;51.082;17.016;2023-03-20T03:28:22;100268.54;;;15.06;41.23
56176;BME280;63065;51.082;17.016;2023-03-20T03:30:32;100269.82;;;15.42;40.97
56176;BME280;63065;51.082;17.016;2023-03-20T03:33:07;100268.74;;;14.78;41.45
56176;BME280;63065;51.082;17.016;2023-03-20T03:35:21;100269.53;;;14.93;41.27
56176;BME280;63065;51.082;17.016;2023-03-20T03:37:51;100270.38;;;15.02;41.20
56176;BME280;63065;51.082;17.016;2023-03-20T03:40:19;100270.19;;;15.32;40.82
56176;BME280;63065;51.082;17.016;2023-03-20T03:42:38;100271.26;;;15.36;40.77
56176;BME280;63065;51.082;17.016;2023-03-20T03:45:08;100271.46;;;15.41;40.53
56176;BME280;63065;51.082;17.016;2023-03-20T03:47:31;100269.01;;;15.41;40.80
56176;BME280;63065;51.082;17.016;2023-03-20T03:49:56;100265.89;;;15.39;40.50
56176;BME280;63065;51.082;17.016;2023-03-20T03:52:21;100264.87;;;15.26;40.85
56176;BME280;63065;51.082;17.016;2023-03-20T03:54:47;100261.77;;;15.23;40.96
56176;BME280;63065;51.082;17.016;2023-03-20T03:57:09;100263.32;;;15.23;40.80
56176;BME280;63065;51.082;17.016;2023-03-20T03:59:38;100265.46;;;15.27;40.91
56176;BME280;63065;51.082;17.016;2023-03-20T04:02:01;100266.81;;;15.29;40.74
56176;BME280;63065;51.082;17.016;2023-03-20T04:04:26;100269.10;;;15.34;41.19
56176;BME280;63065;51.082;17.016;2023-03-20T04:06:51;100271.21;;;15.10;41.02
56176;BME280;63065;51.082;17.016;2023-03-20T04:09:16;100274.80;;;15.37;40.99
56176;BME280;63065;51.082;17.016;2023-03-20T04:11:48;100276.00;;;15.17;40.99
56176;BME280;63065;51.082;17.016;2023-03-20T04:14:07;100275.39;;;15.38;41.19
56176;BME280;63065;51.082;17.016;2023-03-20T04:16:32;100279.32;;;15.24;41.46
56176;BME280;63065;51.082;17.016;2023-03-20T04:19:03;100281.09;;;15.43;41.16
56176;BME280;63065;51.082;17.016;2023-03-20T04:21:23;100283.48;;;15.44;41.36
56176;BME280;63065;51.082;17.016;2023-03-20T04:23:48;100281.47;;;15.47;40.99
56176;BME280;63065;51.082;17.016;2023-03-20T04:26:14;100280.69;;;15.51;41.23
56176;BME280;63065;51.082;17.016;2023-03-20T04:28:40;100276.77;;;15.40;41.62
56176;BME280;63065;51.082;17.016;2023-03-20T04:31:10;100276.53;;;15.35;41.85
56176;BME280;63065;51.082;17.016;2023-03-20T04:33:31;100278.42;;;15.30;42.07
56176;BME280;63065;51.082;17.016;2023-03-20T04:35:56;100278.18;;;15.23;41.79
56176;BME280;63065;51.082;17.016;2023-03-20T04:38:22;100279.69;;;15.19;41.96
56176;BME280;63065;51.082;17.016;2023-03-20T04:40:48;100278.50;;;15.11;42.24
56176;BME280;63065;51.082;17.016;2023-03-20T04:43:14;100279.64;;;15.05;42.41
56176;BME280;63065;51.082;17.016;2023-03-20T04:45:39;100280.48;;;15.01;42.56
56176;BME280;63065;51.082;17.016;2023-03-20T04:48:05;100280.47;;;14.75;42.63
56176;BME280;63065;51.082;17.016;2023-03-20T04:50:30;100284.24;;;14.90;42.77
56176;BME280;63065;51.082;17.016;2023-03-20T04:53:00;100286.55;;;14.98;42.69
56176;BME280;63065;51.082;17.016;2023-03-20T04:55:21;100286.57;;;15.04;42.18
56176;BME280;63065;51.082;17.016;2023-03-20T04:57:47;100285.47;;;15.06;42.16
56176;BME280;63065;51.082;17.016;2023-03-20T05:00:13;100288.48;;;15.06;42.22
56176;BME280;63065;51.082;17.016;2023-03-20T05:02:38;100287.52;;;15.19;41.88
56176;BME280;63065;51.082;17.016;2023-03-20T05:05:04;100293.06;;;15.22;42.19
56176;BME280;63065;51.082;17.016;2023-03-20T05:07:29;100290.89;;;15.22;42.04
56176;BME280;63065;51.082;17.016;2023-03-20T05:09:54;100291.59;;;15.19;42.03
56176;BME280;63065;51.082;17.016;2023-03-20T05:12:19;100290.94;;;15.16;42.20
56176;BME280;63065;51.082;17.016;2023-03-20T05:14:45;100288.19;;;15.17;42.13
56176;BME280;63065;51.082;17.016;2023-03-20T05:17:10;100287.20;;;15.00;42.08
56176;BME280;63065;51.082;17.016;2023-03-20T05:19:35;100287.06;;;15.30;42.07
56176;BME280;63065;51.082;17.016;2023-03-20T05:22:01;100289.67;;;15.20;41.98
56176;BME280;63065;51.082;17.016;2023-03-20T05:24:27;100292.51;;;15.27;42.17
56176;BME280;63065;51.082;17.016;2023-03-20T05:26:53;100292.35;;;15.21;42.36
56176;BME280;63065;51.082;17.016;2023-03-20T05:29:19;100295.71;;;15.16;42.26
56176;BME280;63065;51.082;17.016;2023-03-20T05:31:44;100298.75;;;15.24;42.37
56176;BME280;63065;51.082;17.016;2023-03-20T05:34:10;100300.45;;;15.29;42.05
56176;BME280;63065;51.082;17.016;2023-03-20T05:36:36;100306.20;;;15.37;42.21
56176;BME280;63065;51.082;17.016;2023-03-20T05:39:01;100308.77;;;15.35;42.11
56176;BME280;63065;51.082;17.016;2023-03-20T05:41:26;100312.12;;;15.16;41.91
56176;BME280;63065;51.082;17.016;2023-03-20T05:43:51;100314.38;;;15.15;42.70
56176;BME280;63065;51.082;17.016;2023-03-20T05:46:17;100311.81;;;15.22;42.60
56176;BME280;63065;51.082;17.016;2023-03-20T05:48:42;100312.34;;;15.34;42.42
56176;BME280;63065;51.082;17.016;2023-03-20T05:51:13;100314.50;;;15.43;42.59
56176;BME280;63065;51.082;17.016;2023-03-20T05:53:33;100316.83;;;15.51;42.68
56176;BME280;63065;51.082;17.016;2023-03-20T05:55:59;100317.89;;;15.41;42.37
56176;BME280;63065;51.082;17.016;2023-03-20T05:58:24;100315.55;;;15.46;42.68
56176;BME280;63065;51.082;17.016;2023-03-20T06:00:49;100313.11;;;15.80;42.29
56176;BME280;63065;51.082;17.016;2023-03-20T06:03:15;100315.77;;;15.50;41.84
56176;BME280;63065;51.082;17.016;2023-03-20T06:05:40;100317.59;;;15.77;41.81
56176;BME280;63065;51.082;17.016;2023-03-20T06:08:06;100316.95;;;15.89;41.44
56176;BME280;63065;51.082;17.016;2023-03-20T06:10:31;100319.75;;;15.96;41.79
56176;BME280;63065;51.082;17.016;2023-03-20T06:12:56;100318.27;;;15.95;41.39
56176;BME280;63065;51.082;17.016;2023-03-20T06:15:22;100318.83;;;15.97;41.20
56176;BME280;63065;51.082;17.016;2023-03-20T06:17:47;100318.77;;;15.76;41.86
56176;BME280;63065;51.082;17.016;2023-03-20T06:20:13;100321.80;;;15.86;42.39
56176;BME280;63065;51.082;17.016;2023-03-20T06:22:38;100323.03;;;15.90;42.09
56176;BME280;63065;51.082;17.016;2023-03-20T06:25:04;100325.65;;;15.59;41.95
56176;BME280;63065;51.082;17.016;2023-03-20T06:27:29;100328.13;;;15.57;42.17
56176;BME280;63065;51.082;17.016;2023-03-20T06:29:55;100332.58;;;15.89;42.09
56176;BME280;63065;51.082;17.016;2023-03-20T06:32:20;100337.86;;;15.82;42.04
56176;BME280;63065;51.082;17.016;2023-03-20T06:34:46;100340.22;;;16.19;42.10
56176;BME280;63065;51.082;17.016;2023-03-20T06:37:11;100339.10;;;16.05;41.77
56176;BME280;63065;51.082;17.016;2023-03-20T06:39:37;100340.02;;;15.78;42.27
56176;BME280;63065;51.082;17.016;2023-03-20T06:42:02;100344.33;;;16.13;42.41
56176;BME280;63065;51.082;17.016;2023-03-20T06:44:28;100346.69;;;15.93;42.28
56176;BME280;63065;51.082;17.016;2023-03-20T06:46:53;100346.18;;;16.16;42.31
56176;BME280;63065;51.082;17.016;2023-03-20T06:49:18;100346.04;;;16.05;42.14
56176;BME280;63065;51.082;17.016;2023-03-20T06:51:43;100344.63;;;16.20;42.11
56176;BME280;63065;51.082;17.016;2023-03-20T06:54:08;100344.59;;;16.05;41.81
56176;BME280;63065;51.082;17.016;2023-03-20T06:56:34;100345.81;;;16.35;41.59
56176;BME280;63065;51.082;17.016;2023-03-20T06:58:59;100346.47;;;16.25;41.87
56176;BME280;63065;51.082;17.016;2023-03-20T07:01:24;100347.85;;;16.06;42.32
56176;BME280;63065;51.082;17.016;2023-03-20T07:03:50;100348.70;;;16.03;42.30
56176;BME280;63065;51.082;17.016;2023-03-20T07:06:16;100344.43;;;16.25;42.30
56176;BME280;63065;51.082;17.016;2023-03-20T07:08:41;100344.81;;;15.98;42.76
56176;BME280;63065;51.082;17.016;2023-03-20T07:11:06;100345.08;;;15.98;42.73
56176;BME280;63065;51.082;17.016;2023-03-20T07:13:32;100348.22;;;16.06;42.39
56176;BME280;63065;51.082;17.016;2023-03-20T07:15:59;100349.46;;;16.14;42.39
56176;BME280;63065;51.082;17.016;2023-03-20T07:18:22;100348.25;;;16.19;42.28
56176;BME280;63065;51.082;17.016;2023-03-20T07:20:47;100348.12;;;16.02;42.26
56176;BME280;63065;51.082;17.016;2023-03-20T07:23:13;100348.96;;;16.34;42.16
56176;BME280;63065;51.082;17.016;2023-03-20T07:25:38;100350.07;;;16.35;41.91
56176;BME280;63065;51.082;17.016;2023-03-20T07:28:04;100353.85;;;16.49;41.97
56176;BME280;63065;51.082;17.016;2023-03-20T07:30:32;100353.77;;;16.18;42.29
56176;BME280;63065;51.082;17.016;2023-03-20T07:32:55;100355.80;;;16.20;42.16
56176;BME280;63065;51.082;17.016;2023-03-20T07:35:20;100353.07;;;16.32;42.12
56176;BME280;63065;51.082;17.016;2023-03-20T07:37:45;100351.74;;;16.31;41.86
56176;BME280;63065;51.082;17.016;2023-03-20T07:40:12;100350.53;;;16.49;41.68
56176;BME280;63065;51.082;17.016;2023-03-20T07:42:36;100352.28;;;16.42;41.83
56176;BME280;63065;51.082;17.016;2023-03-20T07:45:03;100357.54;;;16.47;42.05
56176;BME280;63065;51.082;17.016;2023-03-20T07:47:28;100355.69;;;16.45;41.95
56176;BME280;63065;51.082;17.016;2023-03-20T07:49:54;100358.86;;;16.59;41.67
56176;BME280;63065;51.082;17.016;2023-03-20T07:52:19;100361.02;;;16.56;40.99
56176;BME280;63065;51.082;17.016;2023-03-20T07:54:45;100365.16;;;16.25;41.47
56176;BME280;63065;51.082;17.016;2023-03-20T07:57:10;100365.33;;;16.46;41.51
56176;BME280;63065;51.082;17.016;2023-03-20T07:59:35;100365.89;;;16.64;41.21
56176;BME280;63065;51.082;17.016;2023-03-20T08:02:01;100367.28;;;15.89;41.44
56176;BME280;63065;51.082;17.016;2023-03-20T08:04:27;100370.66;;;16.04;41.21
56176;BME280;63065;51.082;17.016;2023-03-20T08:06:52;100371.76;;;16.14;41.09
56176;BME280;63065;51.082;17.016;2023-03-20T08:09:17;100370.17;;;15.62;41.20
56176;BME280;63065;51.082;17.016;2023-03-20T08:11:42;100373.17;;;15.96;40.96
56176;BME280;63065;51.082;17.016;2023-03-20T08:14:08;100370.46;;;16.17;41.15
56176;BME280;63065;51.082;17.016;2023-03-20T08:16:34;100372.07;;;16.01;40.39
56176;BME280;63065;51.082;17.016;2023-03-20T08:18:59;100373.81;;;16.21;40.16
56176;BME280;63065;51.082;17.016;2023-03-20T08:21:24;100373.40;;;16.22;40.36
56176;BME280;63065;51.082;17.016;2023-03-20T08:23:50;100376.04;;;16.35;40.18
56176;BME280;63065;51.082;17.016;2023-03-20T08:26:15;100375.25;;;16.44;40.16
56176;BME280;63065;51.082;17.016;2023-03-20T08:28:41;100377.30;;;16.24;39.46
56176;BME280;63065;51.082;17.016;2023-03-20T08:31:07;100378.85;;;16.41;39.96
56176;BME280;63065;51.082;17.016;2023-03-20T08:33:32;100379.84;;;16.56;39.89
56176;BME280;63065;51.082;17.016;2023-03-20T08:35:58;100379.83;;;16.45;39.84
56176;BME280;63065;51.082;17.016;2023-03-20T08:38:23;100383.70;;;16.48;39.89
56176;BME280;63065;51.082;17.016;2023-03-20T08:40:48;100386.60;;;16.48;39.61
56176;BME280;63065;51.082;17.016;2023-03-20T08:43:14;100389.40;;;16.55;40.13
56176;BME280;63065;51.082;17.016;2023-03-20T08:45:40;100388.71;;;16.43;39.91
56176;BME280;63065;51.082;17.016;2023-03-20T08:48:06;100390.26;;;16.72;39.74
56176;BME280;63065;51.082;17.016;2023-03-20T08:50:31;100390.80;;;16.23;39.97
56176;BME280;63065;51.082;17.016;2023-03-20T08:52:56;100391.38;;;16.68;39.91
56176;BME280;63065;51.082;17.016;2023-03-20T08:55:22;100393.57;;;16.71;39.70
56176;BME280;63065;51.082;17.016;2023-03-20T08:57:47;100393.47;;;16.61;39.70
56176;BME280;63065;51.082;17.016;2023-03-20T09:00:15;100393.18;;;16.64;39.87
56176;BME280;63065;51.082;17.016;2023-03-20T09:02:38;100395.17;;;16.32;39.70
56176;BME280;63065;51.082;17.016;2023-03-20T09:05:04;100397.87;;;16.42;39.98
56176;BME280;63065;51.082;17.016;2023-03-20T09:07:29;100396.60;;;16.55;40.04
56176;BME280;63065;51.082;17.016;2023-03-20T09:09:54;100397.10;;;16.84;39.22
56176;BME280;63065;51.082;17.016;2023-03-20T09:12:20;100393.94;;;16.85;39.78
56176;BME280;63065;51.082;17.016;2023-03-20T09:14:45;100398.38;;;16.86;39.71
56176;BME280;63065;51.082;17.016;2023-03-20T09:17:11;100395.64;;;17.06;39.31
56176;BME280;63065;51.082;17.016;2023-03-20T09:19:36;100394.61;;;17.02;39.63
56176;BME280;63065;51.082;17.016;2023-03-20T09:22:02;100398.69;;;16.52;40.15
56176;BME280;63065;51.082;17.016;2023-03-20T09:24:27;100394.39;;;16.95;39.87
56176;BME280;63065;51.082;17.016;2023-03-20T09:26:53;100394.40;;;17.42;39.10
56176;BME280;63065;51.082;17.016;2023-03-20T09:29:18;100393.81;;;17.43;40.01
56176;BME280;63065;51.082;17.016;2023-03-20T09:31:44;100398.53;;;16.84;39.78
56176;BME280;63065;51.082;17.016;2023-03-20T09:34:09;100397.73;;;16.94;40.51
56176;BME280;63065;51.082;17.016;2023-03-20T09:36:34;100397.85;;;16.90;40.01
56176;BME280;63065;51.082;17.016;2023-03-20T09:39:00;100396.73;;;16.85;40.51
56176;BME280;63065;51.082;17.016;2023-03-20T09:41:26;100395.39;;;16.86;40.73
56176;BME280;63065;51.082;17.016;2023-03-20T09:44:02;100390.81;;;16.30;40.78
56176;BME280;63065;51.082;17.016;2023-03-20T09:46:26;100388.99;;;16.65;40.98
56176;BME280;63065;51.082;17.016;2023-03-20T09:48:47;100387.00;;;17.00;40.47
56176;BME280;63065;51.082;17.016;2023-03-20T09:51:14;100385.67;;;16.58;40.77
56176;BME280;63065;51.082;17.016;2023-03-20T09:53:38;100383.53;;;17.04;40.10
56176;BME280;63065;51.082;17.016;2023-03-20T09:55:59;100383.33;;;16.75;40.02
56176;BME280;63065;51.082;17.016;2023-03-20T09:58:25;100383.43;;;17.30;40.65
56176;BME280;63065;51.082;17.016;2023-03-20T10:00:50;100383.90;;;17.87;39.70
56176;BME280;63065;51.082;17.016;2023-03-20T10:03:18;100380.04;;;17.89;38.68
56176;BME280;63065;51.082;17.016;2023-03-20T10:05:44;100385.23;;;17.48;39.23
56176;BME280;63065;51.082;17.016;2023-03-20T10:08:11;100381.39;;;17.96;38.87
56176;BME280;63065;51.082;17.016;2023-03-20T10:10:41;100381.01;;;18.39;38.85
56176;BME280;63065;51.082;17.016;2023-03-20T10:13:07;100378.83;;;18.31;38.41
56176;BME280;63065;51.082;17.016;2023-03-20T10:15:34;100376.11;;;18.59;37.37
56176;BME280;63065;51.082;17.016;2023-03-20T10:17:55;100378.07;;;18.72;38.27
56176;BME280;63065;51.082;17.016;2023-03-20T10:20:23;100376.77;;;18.70;38.66
56176;BME280;63065;51.082;17.016;2023-03-20T10:22:41;100373.66;;;17.82;39.35
56176;BME280;63065;51.082;17.016;2023-03-20T10:25:06;100371.63;;;18.35;38.45
56176;BME280;63065;51.082;17.016;2023-03-20T10:27:33;100371.39;;;18.57;38.09
56176;BME280;63065;51.082;17.016;2023-03-20T10:30:06;100364.09;;;18.41;38.27
56176;BME280;63065;51.082;17.016;2023-03-20T10:32:23;100361.09;;;18.50;38.54
56176;BME280;63065;51.082;17.016;2023-03-20T10:34:56;100358.96;;;18.61;38.23
56176;BME280;63065;51.082;17.016;2023-03-20T10:37:22;100357.31;;;18.37;38.99
56176;BME280;63065;51.082;17.016;2023-03-20T10:39:47;100358.46;;;18.83;38.82
56176;BME280;63065;51.082;17.016;2023-03-20T10:42:12;100356.28;;;18.36;38.67
56176;BME280;63065;51.082;17.016;2023-03-20T10:44:31;100352.61;;;18.68;37.87
56176;BME280;63065;51.082;17.016;2023-03-20T10:46:54;100348.75;;;19.03;37.84
56176;BME280;63065;51.082;17.016;2023-03-20T10:49:23;100345.50;;;19.13;36.56
56176;BME280;63065;51.082;17.016;2023-03-20T10:51:47;100343.11;;;19.25;37.38
56176;BME280;63065;51.082;17.016;2023-03-20T10:54:20;100344.07;;;19.18;36.92
56176;BME280;63065;51.082;17.016;2023-03-20T10:56:39;100339.22;;;19.66;36.98
56176;BME280;63065;51.082;17.016;2023-03-20T10:59:04;100334.79;;;19.59;37.08
56176;BME280;63065;51.082;17.016;2023-03-20T11:01:26;100335.26;;;19.73;36.58
56176;BME280;63065;51.082;17.016;2023-03-20T11:03:50;100332.98;;;19.98;37.63
56176;BME280;63065;51.082;17.016;2023-03-20T11:06:19;100331.45;;;19.58;36.09
56176;BME280;63065;51.082;17.016;2023-03-20T11:08:45;100329.45;;;19.21;37.34
56176;BME280;63065;51.082;17.016;2023-03-20T11:11:07;100330.24;;;19.33;37.14
56176;BME280;63065;51.082;17.016;2023-03-20T11:13:35;100334.58;;;18.95;37.28
56176;BME280;63065;51.082;17.016;2023-03-20T11:16:08;100338.19;;;18.54;37.29
56176;BME280;63065;51.082;17.016;2023-03-20T11:18:24;100333.59;;;18.32;37.20
56176;BME280;63065;51.082;17.016;2023-03-20T11:20:51;100331.60;;;18.82;37.05
56176;BME280;63065;51.082;17.016;2023-03-20T11:23:16;100333.16;;;18.49;36.52
56176;BME280;63065;51.082;17.016;2023-03-20T11:25:48;100326.34;;;19.14;37.00
56176;BME280;63065;51.082;17.016;2023-03-20T11:30:31;100325.52;;;19.14;35.67
56176;BME280;63065;51.082;17.016;2023-03-20T11:32:56;100328.55;;;19.84;35.17
56176;BME280;63065;51.082;17.016;2023-03-20T11:35:28;100328.27;;;19.57;36.47
56176;BME280;63065;51.082;17.016;2023-03-20T11:37:49;100327.98;;;19.31;37.17
56176;BME280;63065;51.082;17.016;2023-03-20T11:40:15;100332.99;;;18.66;37.06
56176;BME280;63065;51.082;17.016;2023-03-20T11:42:38;100332.07;;;18.96;36.99
56176;BME280;63065;51.082;17.016;2023-03-20T11:45:05;100330.86;;;18.75;37.01
56176;BME280;63065;51.082;17.016;2023-03-20T11:47:32;100325.96;;;19.41;36.45
56176;BME280;63065;51.082;17.016;2023-03-20T11:49:57;100320.26;;;19.63;35.64
56176;BME280;63065;51.082;17.016;2023-03-20T11:52:23;100321.80;;;19.39;36.08
56176;BME280;63065;51.082;17.016;2023-03-20T11:54:47;100318.34;;;19.36;36.30
56176;BME280;63065;51.082;17.016;2023-03-20T11:59:36;100309.89;;;19.98;35.30
56176;BME280;63065;51.082;17.016;2023-03-20T12:02:03;100311.29;;;20.16;35.07
56176;BME280;63065;51.082;17.016;2023-03-20T12:04:29;100308.32;;;20.30;35.16
56176;BME280;63065;51.082;17.016;2023-03-20T12:06:56;100306.97;;;20.87;33.73
56176;BME280;63065;51.082;17.016;2023-03-20T12:09:25;100306.11;;;21.12;35.05
56176;BME280;63065;51.082;17.016;2023-03-20T12:11:47;100306.05;;;21.21;34.74
56176;BME280;63065;51.082;17.016;2023-03-20T12:14:17;100298.67;;;20.27;34.97
56176;BME280;63065;51.082;17.016;2023-03-20T12:16:36;100302.06;;;20.34;35.29
56176;BME280;63065;51.082;17.016;2023-03-20T12:19:03;100297.44;;;20.18;35.55
56176;BME280;63065;51.082;17.016;2023-03-20T12:21:32;100294.51;;;20.41;35.39
56176;BME280;63065;51.082;17.016;2023-03-20T12:23:55;100291.11;;;20.55;35.16
56176;BME280;63065;51.082;17.016;2023-03-20T12:26:23;100293.35;;;20.25;35.17
56176;BME280;63065;51.082;17.016;2023-03-20T12:28:51;100289.55;;;20.90;34.37
56176;BME280;63065;51.082;17.016;2023-03-20T12:31:20;100284.88;;;21.01;33.27
56176;BME280;63065;51.082;17.016;2023-03-20T12:33:42;100279.35;;;21.10;33.70
56176;BME280;63065;51.082;17.016;2023-03-20T12:36:01;100279.60;;;21.46;33.06
56176;BME280;63065;51.082;17.016;2023-03-20T12:38:28;100273.72;;;21.38;32.87
56176;BME280;63065;51.082;17.016;2023-03-20T12:41:04;100272.93;;;21.77;32.79
56176;BME280;63065;51.082;17.016;2023-03-20T12:43:24;100269.51;;;21.67;32.46
56176;BME280;63065;51.082;17.016;2023-03-20T12:45:48;100262.34;;;21.53;32.74
56176;BME280;63065;51.082;17.016;2023-03-20T12:48:20;100254.35;;;21.99;32.36
56176;BME280;63065;51.082;17.016;2023-03-20T12:50:36;100250.19;;;22.43;31.69